sensor_id;sensor_type;location;lat;lon;timestamp;P1;durP1;ratioP1;P2;durP2;ratioP2
3733;SDS011;1882;52.256;8.874;2023-06-22T00:00:00;24.90;;;17.03;;
3733;SDS011;1882;52.256;8.874;2023-06-22T00:02:37;22.27;;;17.73;;
3733;SDS011;1882;52.256;8.874;2023-06-22T00:05:04;19.70;;;16.07;;
3733;SDS011;1882;52.256;8.874;2023-06-22T00:07:31;20.17;;;15.40;;
3733;SDS011;1882;52.256;8.874;2023-06-22T00:09:58;19.30;;;15.13;;
3733;SDS011;1882;52.256;8.874;2023-06-22T00:12:26;20.10;;;16.00;;
3733;SDS011;1882;52.256;8.874;2023-06-22T00:14:53;21.93;;;16.40;;
3733;SDS011;1882;52.256;8.874;2023-06-22T00:17:20;18.90;;;15.30;;
3733;SDS011;1882;52.256;8.874;2023-06-22T00:19:46;22.27;;;16.30;;
3733;SDS011;1882;52.256;8.874;2023-06-22T00:22:13;23.73;;;16.80;;
3733;SDS011;1882;52.256;8.874;2023-06-22T00:24:40;20.17;;;16.03;;
3733;SDS011;1882;52.256;8.874;2023-06-22T00:27:08;24.77;;;16.37;;
3733;SDS011;1882;52.256;8.874;2023-06-22T00:29:34;18.53;;;15.77;;
3733;SDS011;1882;52.256;8.874;2023-06-22T00:32:04;23.83;;;17.97;;
3733;SDS011;1882;52.256;8.874;2023-06-22T00:34:31;20.87;;;16.00;;
3733;SDS011;1882;52.256;8.874;2023-06-22T00:36:58;20.37;;;16.30;;
3733;SDS011;1882;52.256;8.874;2023-06-22T00:39:28;16.93;;;14.20;;
3733;SDS011;1882;52.256;8.874;2023-06-22T00:41:54;17.47;;;14.23;;
3733;SDS011;1882;52.256;8.874;2023-06-22T00:44:22;20.60;;;16.03;;
3733;SDS011;1882;52.256;8.874;2023-06-22T00:46:50;19.23;;;14.70;;
3733;SDS011;1882;52.256;8.874;2023-06-22T00:49:16;22.57;;;17.77;;
3733;SDS011;1882;52.256;8.874;2023-06-22T00:51:46;22.60;;;16.90;;
3733;SDS011;1882;52.256;8.874;2023-06-22T00:54:14;21.90;;;16.43;;
3733;SDS011;1882;52.256;8.874;2023-06-22T00:56:40;20.00;;;16.57;;
3733;SDS011;1882;52.256;8.874;2023-06-22T00:59:08;21.40;;;16.80;;
3733;SDS011;1882;52.256;8.874;2023-06-22T01:01:38;22.10;;;17.83;;
3733;SDS011;1882;52.256;8.874;2023-06-22T01:04:07;23.20;;;17.47;;
3733;SDS011;1882;52.256;8.874;2023-06-22T01:06:38;26.33;;;18.70;;
3733;SDS011;1882;52.256;8.874;2023-06-22T01:09:26;22.17;;;16.00;;
3733;SDS011;1882;52.256;8.874;2023-06-22T01:11:57;22.00;;;17.10;;
3733;SDS011;1882;52.256;8.874;2023-06-22T01:16:59;22.20;;;17.57;;
3733;SDS011;1882;52.256;8.874;2023-06-22T01:19:43;23.00;;;16.83;;
3733;SDS011;1882;52.256;8.874;2023-06-22T01:22:17;22.97;;;16.60;;
3733;SDS011;1882;52.256;8.874;2023-06-22T01:24:51;20.77;;;16.63;;
3733;SDS011;1882;52.256;8.874;2023-06-22T01:27:42;20.80;;;16.43;;
3733;SDS011;1882;52.256;8.874;2023-06-22T01:30:23;22.70;;;16.93;;
3733;SDS011;1882;52.256;8.874;2023-06-22T01:32:53;21.53;;;16.40;;
3733;SDS011;1882;52.256;8.874;2023-06-22T01:35:41;21.60;;;16.63;;
3733;SDS011;1882;52.256;8.874;2023-06-22T01:38:08;19.40;;;15.63;;
3733;SDS011;1882;52.256;8.874;2023-06-22T01:40:36;20.93;;;16.77;;
3733;SDS011;1882;52.256;8.874;2023-06-22T01:43:05;25.90;;;17.17;;
3733;SDS011;1882;52.256;8.874;2023-06-22T01:45:34;24.67;;;18.13;;
3733;SDS011;1882;52.256;8.874;2023-06-22T01:48:01;23.73;;;17.20;;
3733;SDS011;1882;52.256;8.874;2023-06-22T01:50:30;23.90;;;17.70;;
3733;SDS011;1882;52.256;8.874;2023-06-22T01:52:57;24.83;;;17.53;;
3733;SDS011;1882;52.256;8.874;2023-06-22T01:55:26;23.60;;;17.53;;
3733;SDS011;1882;52.256;8.874;2023-06-22T01:58:04;24.50;;;18.83;;
3733;SDS011;1882;52.256;8.874;2023-06-22T02:00:31;22.00;;;16.40;;
3733;SDS011;1882;52.256;8.874;2023-06-22T02:03:08;22.13;;;17.40;;
3733;SDS011;1882;52.256;8.874;2023-06-22T02:05:43;21.63;;;16.33;;
3733;SDS011;1882;52.256;8.874;2023-06-22T02:08:24;23.20;;;17.57;;
3733;SDS011;1882;52.256;8.874;2023-06-22T02:11:02;22.67;;;16.10;;
3733;SDS011;1882;52.256;8.874;2023-06-22T02:13:29;20.87;;;16.70;;
3733;SDS011;1882;52.256;8.874;2023-06-22T02:15:56;27.83;;;18.50;;
3733;SDS011;1882;52.256;8.874;2023-06-22T02:18:23;29.10;;;19.80;;
3733;SDS011;1882;52.256;8.874;2023-06-22T02:20:50;26.00;;;20.20;;
3733;SDS011;1882;52.256;8.874;2023-06-22T02:23:17;29.60;;;18.67;;
3733;SDS011;1882;52.256;8.874;2023-06-22T02:25:43;25.27;;;19.33;;
3733;SDS011;1882;52.256;8.874;2023-06-22T02:28:12;28.30;;;20.27;;
3733;SDS011;1882;52.256;8.874;2023-06-22T02:30:39;24.10;;;18.37;;
3733;SDS011;1882;52.256;8.874;2023-06-22T02:33:06;28.67;;;19.20;;
3733;SDS011;1882;52.256;8.874;2023-06-22T02:35:33;27.70;;;19.20;;
3733;SDS011;1882;52.256;8.874;2023-06-22T02:38:02;24.90;;;19.80;;
3733;SDS011;1882;52.256;8.874;2023-06-22T02:40:30;32.43;;;20.63;;
3733;SDS011;1882;52.256;8.874;2023-06-22T02:42:57;24.73;;;18.80;;
3733;SDS011;1882;52.256;8.874;2023-06-22T02:45:28;21.53;;;17.80;;
3733;SDS011;1882;52.256;8.874;2023-06-22T02:48:02;26.90;;;19.20;;
3733;SDS011;1882;52.256;8.874;2023-06-22T02:50:29;27.87;;;18.83;;
3733;SDS011;1882;52.256;8.874;2023-06-22T02:52:57;26.40;;;20.73;;
3733;SDS011;1882;52.256;8.874;2023-06-22T02:55:26;23.77;;;18.93;;
3733;SDS011;1882;52.256;8.874;2023-06-22T02:57:56;26.40;;;19.00;;
3733;SDS011;1882;52.256;8.874;2023-06-22T03:00:33;23.90;;;18.50;;
3733;SDS011;1882;52.256;8.874;2023-06-22T03:03:01;28.47;;;19.00;;
3733;SDS011;1882;52.256;8.874;2023-06-22T03:05:31;26.20;;;19.40;;
3733;SDS011;1882;52.256;8.874;2023-06-22T03:08:01;25.87;;;19.33;;
3733;SDS011;1882;52.256;8.874;2023-06-22T03:10:37;26.03;;;18.90;;
3733;SDS011;1882;52.256;8.874;2023-06-22T03:13:03;28.87;;;19.10;;
3733;SDS011;1882;52.256;8.874;2023-06-22T03:15:30;29.33;;;19.10;;
3733;SDS011;1882;52.256;8.874;2023-06-22T03:17:59;24.30;;;17.77;;
3733;SDS011;1882;52.256;8.874;2023-06-22T03:20:26;22.17;;;17.10;;
3733;SDS011;1882;52.256;8.874;2023-06-22T03:22:59;28.83;;;20.73;;
3733;SDS011;1882;52.256;8.874;2023-06-22T03:25:26;26.93;;;20.60;;
3733;SDS011;1882;52.256;8.874;2023-06-22T03:28:00;27.87;;;20.57;;
3733;SDS011;1882;52.256;8.874;2023-06-22T03:30:27;27.20;;;21.30;;
3733;SDS011;1882;52.256;8.874;2023-06-22T03:32:56;27.97;;;19.53;;
3733;SDS011;1882;52.256;8.874;2023-06-22T03:35:28;25.03;;;19.47;;
3733;SDS011;1882;52.256;8.874;2023-06-22T03:37:57;23.77;;;18.50;;
3733;SDS011;1882;52.256;8.874;2023-06-22T03:40:23;25.67;;;18.87;;
3733;SDS011;1882;52.256;8.874;2023-06-22T03:43:03;28.33;;;18.17;;
3733;SDS011;1882;52.256;8.874;2023-06-22T03:45:32;24.10;;;18.10;;
3733;SDS011;1882;52.256;8.874;2023-06-22T03:47:59;25.40;;;18.40;;
3733;SDS011;1882;52.256;8.874;2023-06-22T03:50:26;22.13;;;17.80;;
3733;SDS011;1882;52.256;8.874;2023-06-22T03:53:01;23.23;;;17.63;;
3733;SDS011;1882;52.256;8.874;2023-06-22T03:55:30;19.87;;;16.53;;
3733;SDS011;1882;52.256;8.874;2023-06-22T03:57:59;18.80;;;15.43;;
3733;SDS011;1882;52.256;8.874;2023-06-22T04:00:32;21.23;;;16.63;;
3733;SDS011;1882;52.256;8.874;2023-06-22T04:02:58;20.90;;;16.00;;
3733;SDS011;1882;52.256;8.874;2023-06-22T04:05:38;19.43;;;15.87;;
3733;SDS011;1882;52.256;8.874;2023-06-22T04:08:05;20.37;;;16.67;;
3733;SDS011;1882;52.256;8.874;2023-06-22T04:10:32;20.97;;;15.43;;
3733;SDS011;1882;52.256;8.874;2023-06-22T04:12:59;21.70;;;16.73;;
3733;SDS011;1882;52.256;8.874;2023-06-22T04:15:31;22.93;;;16.70;;
3733;SDS011;1882;52.256;8.874;2023-06-22T04:18:01;21.53;;;16.73;;
3733;SDS011;1882;52.256;8.874;2023-06-22T04:20:27;21.67;;;16.23;;
3733;SDS011;1882;52.256;8.874;2023-06-22T04:23:02;26.07;;;16.80;;
3733;SDS011;1882;52.256;8.874;2023-06-22T04:25:31;22.27;;;16.77;;
3733;SDS011;1882;52.256;8.874;2023-06-22T04:27:58;22.10;;;17.73;;
3733;SDS011;1882;52.256;8.874;2023-06-22T04:30:32;22.00;;;16.80;;
3733;SDS011;1882;52.256;8.874;2023-06-22T04:32:59;23.77;;;17.80;;
3733;SDS011;1882;52.256;8.874;2023-06-22T04:35:26;30.17;;;17.93;;
3733;SDS011;1882;52.256;8.874;2023-06-22T04:37:57;21.87;;;17.23;;
3733;SDS011;1882;52.256;8.874;2023-06-22T04:40:26;20.00;;;16.70;;
3733;SDS011;1882;52.256;8.874;2023-06-22T04:42:53;21.70;;;18.20;;
3733;SDS011;1882;52.256;8.874;2023-06-22T04:45:20;20.73;;;16.40;;
3733;SDS011;1882;52.256;8.874;2023-06-22T04:47:48;20.60;;;16.73;;
3733;SDS011;1882;52.256;8.874;2023-06-22T04:50:15;24.97;;;17.23;;
3733;SDS011;1882;52.256;8.874;2023-06-22T04:52:42;23.00;;;16.77;;
3733;SDS011;1882;52.256;8.874;2023-06-22T04:55:09;20.57;;;15.63;;
3733;SDS011;1882;52.256;8.874;2023-06-22T04:57:37;19.00;;;16.50;;
3733;SDS011;1882;52.256;8.874;2023-06-22T05:00:06;23.27;;;15.60;;
3733;SDS011;1882;52.256;8.874;2023-06-22T05:02:43;19.30;;;15.27;;
3733;SDS011;1882;52.256;8.874;2023-06-22T05:05:12;17.03;;;14.40;;
3733;SDS011;1882;52.256;8.874;2023-06-22T05:07:49;24.20;;;13.93;;
3733;SDS011;1882;52.256;8.874;2023-06-22T05:10:19;20.30;;;14.40;;
3733;SDS011;1882;52.256;8.874;2023-06-22T05:12:46;16.03;;;13.50;;
3733;SDS011;1882;52.256;8.874;2023-06-22T05:15:13;17.77;;;13.60;;
3733;SDS011;1882;52.256;8.874;2023-06-22T05:17:41;19.00;;;14.10;;
3733;SDS011;1882;52.256;8.874;2023-06-22T05:20:14;25.10;;;14.60;;
3733;SDS011;1882;52.256;8.874;2023-06-22T05:22:44;19.87;;;15.93;;
3733;SDS011;1882;52.256;8.874;2023-06-22T05:25:11;20.70;;;14.23;;
3733;SDS011;1882;52.256;8.874;2023-06-22T05:27:39;16.23;;;14.17;;
3733;SDS011;1882;52.256;8.874;2023-06-22T05:30:07;15.13;;;13.53;;
3733;SDS011;1882;52.256;8.874;2023-06-22T05:32:34;19.73;;;14.80;;
3733;SDS011;1882;52.256;8.874;2023-06-22T05:35:02;15.83;;;13.20;;
3733;SDS011;1882;52.256;8.874;2023-06-22T05:37:31;20.07;;;14.20;;
3733;SDS011;1882;52.256;8.874;2023-06-22T05:39:58;15.93;;;14.23;;
3733;SDS011;1882;52.256;8.874;2023-06-22T05:42:24;19.83;;;13.83;;
3733;SDS011;1882;52.256;8.874;2023-06-22T05:44:52;16.53;;;14.73;;
3733;SDS011;1882;52.256;8.874;2023-06-22T05:47:19;16.83;;;14.73;;
3733;SDS011;1882;52.256;8.874;2023-06-22T05:49:53;20.67;;;15.10;;
3733;SDS011;1882;52.256;8.874;2023-06-22T05:52:20;20.30;;;14.80;;
3733;SDS011;1882;52.256;8.874;2023-06-22T05:54:47;18.13;;;13.33;;
3733;SDS011;1882;52.256;8.874;2023-06-22T05:57:19;16.70;;;14.93;;
3733;SDS011;1882;52.256;8.874;2023-06-22T05:59:48;17.20;;;14.47;;
3733;SDS011;1882;52.256;8.874;2023-06-22T06:02:14;17.97;;;14.53;;
3733;SDS011;1882;52.256;8.874;2023-06-22T06:04:41;22.37;;;14.40;;
3733;SDS011;1882;52.256;8.874;2023-06-22T06:07:08;14.50;;;13.10;;
3733;SDS011;1882;52.256;8.874;2023-06-22T06:09:37;14.83;;;13.30;;
3733;SDS011;1882;52.256;8.874;2023-06-22T06:12:04;17.23;;;15.50;;
3733;SDS011;1882;52.256;8.874;2023-06-22T06:14:31;16.43;;;14.83;;
3733;SDS011;1882;52.256;8.874;2023-06-22T06:16:58;16.53;;;14.57;;
3733;SDS011;1882;52.256;8.874;2023-06-22T06:19:27;17.03;;;15.30;;
3733;SDS011;1882;52.256;8.874;2023-06-22T06:21:56;17.80;;;15.83;;
3733;SDS011;1882;52.256;8.874;2023-06-22T06:24:23;18.70;;;16.90;;
3733;SDS011;1882;52.256;8.874;2023-06-22T06:26:49;16.30;;;14.70;;
3733;SDS011;1882;52.256;8.874;2023-06-22T06:29:16;16.80;;;15.20;;
3733;SDS011;1882;52.256;8.874;2023-06-22T06:31:45;14.93;;;13.53;;
3733;SDS011;1882;52.256;8.874;2023-06-22T06:34:14;17.03;;;15.23;;
3733;SDS011;1882;52.256;8.874;2023-06-22T06:36:41;18.40;;;16.50;;
3733;SDS011;1882;52.256;8.874;2023-06-22T06:39:08;17.57;;;15.87;;
3733;SDS011;1882;52.256;8.874;2023-06-22T06:41:36;18.57;;;16.67;;
3733;SDS011;1882;52.256;8.874;2023-06-22T06:44:02;19.27;;;16.60;;
3733;SDS011;1882;52.256;8.874;2023-06-22T06:46:31;19.70;;;17.70;;
3733;SDS011;1882;52.256;8.874;2023-06-22T06:48:58;19.57;;;17.57;;
3733;SDS011;1882;52.256;8.874;2023-06-22T06:51:25;19.20;;;16.70;;
3733;SDS011;1882;52.256;8.874;2023-06-22T06:53:51;22.47;;;17.07;;
3733;SDS011;1882;52.256;8.874;2023-06-22T06:56:21;17.53;;;15.80;;
3733;SDS011;1882;52.256;8.874;2023-06-22T06:58:49;17.63;;;14.53;;
3733;SDS011;1882;52.256;8.874;2023-06-22T07:01:16;19.07;;;17.00;;
3733;SDS011;1882;52.256;8.874;2023-06-22T07:03:48;18.13;;;16.20;;
3733;SDS011;1882;52.256;8.874;2023-06-22T07:06:22;18.20;;;16.40;;
3733;SDS011;1882;52.256;8.874;2023-06-22T07:08:49;21.90;;;17.50;;
3733;SDS011;1882;52.256;8.874;2023-06-22T07:11:16;20.70;;;18.50;;
3733;SDS011;1882;52.256;8.874;2023-06-22T07:13:54;20.63;;;18.43;;
3733;SDS011;1882;52.256;8.874;2023-06-22T07:16:21;20.63;;;18.50;;
3733;SDS011;1882;52.256;8.874;2023-06-22T07:18:49;20.20;;;17.70;;
3733;SDS011;1882;52.256;8.874;2023-06-22T07:21:23;20.93;;;18.83;;
3733;SDS011;1882;52.256;8.874;2023-06-22T07:23:50;22.17;;;19.80;;
3733;SDS011;1882;52.256;8.874;2023-06-22T07:26:16;20.37;;;17.93;;
3733;SDS011;1882;52.256;8.874;2023-06-22T07:28:57;21.73;;;19.50;;
3733;SDS011;1882;52.256;8.874;2023-06-22T07:31:24;20.93;;;17.87;;
3733;SDS011;1882;52.256;8.874;2023-06-22T07:33:51;21.33;;;17.93;;
3733;SDS011;1882;52.256;8.874;2023-06-22T07:36:23;21.97;;;19.47;;
3733;SDS011;1882;52.256;8.874;2023-06-22T07:38:49;24.13;;;19.40;;
3733;SDS011;1882;52.256;8.874;2023-06-22T07:41:18;23.50;;;21.00;;
3733;SDS011;1882;52.256;8.874;2023-06-22T07:43:48;23.30;;;20.43;;
3733;SDS011;1882;52.256;8.874;2023-06-22T07:46:16;23.37;;;19.80;;
3733;SDS011;1882;52.256;8.874;2023-06-22T07:48:43;22.07;;;19.43;;
3733;SDS011;1882;52.256;8.874;2023-06-22T07:51:10;21.80;;;19.50;;
3733;SDS011;1882;52.256;8.874;2023-06-22T07:53:39;21.57;;;18.70;;
3733;SDS011;1882;52.256;8.874;2023-06-22T07:56:07;23.03;;;18.83;;
3733;SDS011;1882;52.256;8.874;2023-06-22T07:58:36;22.00;;;19.57;;
3733;SDS011;1882;52.256;8.874;2023-06-22T08:01:03;26.50;;;20.07;;
3733;SDS011;1882;52.256;8.874;2023-06-22T08:03:30;22.57;;;20.20;;
3733;SDS011;1882;52.256;8.874;2023-06-22T08:05:57;23.53;;;20.77;;
3733;SDS011;1882;52.256;8.874;2023-06-22T08:08:24;23.87;;;20.53;;
3733;SDS011;1882;52.256;8.874;2023-06-22T08:10:50;24.40;;;19.80;;
3733;SDS011;1882;52.256;8.874;2023-06-22T08:13:17;23.30;;;18.77;;
3733;SDS011;1882;52.256;8.874;2023-06-22T08:15:44;26.77;;;19.97;;
3733;SDS011;1882;52.256;8.874;2023-06-22T08:18:12;22.70;;;20.20;;
3733;SDS011;1882;52.256;8.874;2023-06-22T08:20:39;22.53;;;19.37;;
3733;SDS011;1882;52.256;8.874;2023-06-22T08:23:06;22.80;;;19.00;;
3733;SDS011;1882;52.256;8.874;2023-06-22T08:25:40;26.67;;;21.57;;
3733;SDS011;1882;52.256;8.874;2023-06-22T08:28:06;24.17;;;19.30;;
3733;SDS011;1882;52.256;8.874;2023-06-22T08:30:33;27.87;;;21.03;;
3733;SDS011;1882;52.256;8.874;2023-06-22T08:33:00;24.93;;;18.83;;
3733;SDS011;1882;52.256;8.874;2023-06-22T08:35:27;22.73;;;20.33;;
3733;SDS011;1882;52.256;8.874;2023-06-22T08:37:54;26.60;;;21.30;;
3733;SDS011;1882;52.256;8.874;2023-06-22T08:40:22;24.93;;;20.20;;
3733;SDS011;1882;52.256;8.874;2023-06-22T08:42:49;23.40;;;19.43;;
3733;SDS011;1882;52.256;8.874;2023-06-22T08:45:15;23.57;;;20.43;;
3733;SDS011;1882;52.256;8.874;2023-06-22T08:47:42;21.23;;;19.03;;
3733;SDS011;1882;52.256;8.874;2023-06-22T08:50:12;23.33;;;19.37;;
3733;SDS011;1882;52.256;8.874;2023-06-22T08:52:40;23.60;;;20.33;;
3733;SDS011;1882;52.256;8.874;2023-06-22T08:55:10;24.60;;;19.20;;
3733;SDS011;1882;52.256;8.874;2023-06-22T08:57:37;24.23;;;20.33;;
3733;SDS011;1882;52.256;8.874;2023-06-22T09:00:06;23.03;;;18.93;;
3733;SDS011;1882;52.256;8.874;2023-06-22T09:02:41;29.30;;;21.40;;
3733;SDS011;1882;52.256;8.874;2023-06-22T09:05:08;26.50;;;21.37;;
3733;SDS011;1882;52.256;8.874;2023-06-22T09:07:35;28.90;;;23.20;;
3733;SDS011;1882;52.256;8.874;2023-06-22T09:10:02;27.50;;;22.50;;
3733;SDS011;1882;52.256;8.874;2023-06-22T09:12:32;27.37;;;23.00;;
3733;SDS011;1882;52.256;8.874;2023-06-22T09:15:00;29.43;;;21.00;;
3733;SDS011;1882;52.256;8.874;2023-06-22T09:17:31;33.23;;;22.07;;
3733;SDS011;1882;52.256;8.874;2023-06-22T09:19:59;27.20;;;22.17;;
3733;SDS011;1882;52.256;8.874;2023-06-22T09:22:26;25.23;;;20.13;;
3733;SDS011;1882;52.256;8.874;2023-06-22T09:24:55;29.63;;;21.30;;
3733;SDS011;1882;52.256;8.874;2023-06-22T09:27:22;25.80;;;20.70;;
3733;SDS011;1882;52.256;8.874;2023-06-22T09:29:49;24.60;;;20.20;;
3733;SDS011;1882;52.256;8.874;2023-06-22T09:32:16;28.13;;;21.27;;
3733;SDS011;1882;52.256;8.874;2023-06-22T09:34:43;21.97;;;19.47;;
3733;SDS011;1882;52.256;8.874;2023-06-22T09:37:09;22.07;;;18.40;;
3733;SDS011;1882;52.256;8.874;2023-06-22T09:39:36;25.50;;;21.90;;
3733;SDS011;1882;52.256;8.874;2023-06-22T09:42:03;24.17;;;21.60;;
3733;SDS011;1882;52.256;8.874;2023-06-22T09:44:31;29.60;;;21.33;;
3733;SDS011;1882;52.256;8.874;2023-06-22T09:46:58;24.50;;;20.77;;
3733;SDS011;1882;52.256;8.874;2023-06-22T09:49:25;26.37;;;20.17;;
3733;SDS011;1882;52.256;8.874;2023-06-22T09:52:11;26.40;;;21.73;;
3733;SDS011;1882;52.256;8.874;2023-06-22T09:54:38;23.07;;;18.93;;
3733;SDS011;1882;52.256;8.874;2023-06-22T09:57:07;22.90;;;19.90;;
3733;SDS011;1882;52.256;8.874;2023-06-22T09:59:34;24.10;;;18.90;;
3733;SDS011;1882;52.256;8.874;2023-06-22T10:02:01;21.23;;;18.97;;
3733;SDS011;1882;52.256;8.874;2023-06-22T10:04:27;21.60;;;19.03;;
3733;SDS011;1882;52.256;8.874;2023-06-22T10:06:55;22.07;;;19.70;;
3733;SDS011;1882;52.256;8.874;2023-06-22T10:09:22;23.00;;;19.27;;
3733;SDS011;1882;52.256;8.874;2023-06-22T10:11:49;22.73;;;19.97;;
3733;SDS011;1882;52.256;8.874;2023-06-22T10:14:15;21.40;;;17.30;;
3733;SDS011;1882;52.256;8.874;2023-06-22T10:16:44;21.67;;;19.37;;
3733;SDS011;1882;52.256;8.874;2023-06-22T10:19:11;20.27;;;16.90;;
3733;SDS011;1882;52.256;8.874;2023-06-22T10:21:37;26.70;;;20.57;;
3733;SDS011;1882;52.256;8.874;2023-06-22T10:24:04;23.33;;;20.83;;
3733;SDS011;1882;52.256;8.874;2023-06-22T10:26:33;21.33;;;19.13;;
3733;SDS011;1882;52.256;8.874;2023-06-22T10:29:02;25.07;;;21.10;;
3733;SDS011;1882;52.256;8.874;2023-06-22T10:31:32;24.47;;;19.63;;
3733;SDS011;1882;52.256;8.874;2023-06-22T10:33:59;28.67;;;20.67;;
3733;SDS011;1882;52.256;8.874;2023-06-22T10:36:26;22.33;;;18.23;;
3733;SDS011;1882;52.256;8.874;2023-06-22T10:38:53;24.90;;;19.93;;
3733;SDS011;1882;52.256;8.874;2023-06-22T10:41:27;25.53;;;18.33;;
3733;SDS011;1882;52.256;8.874;2023-06-22T10:43:56;20.40;;;17.30;;
3733;SDS011;1882;52.256;8.874;2023-06-22T10:46:26;18.67;;;15.60;;
3733;SDS011;1882;52.256;8.874;2023-06-22T10:48:54;21.63;;;16.80;;
3733;SDS011;1882;52.256;8.874;2023-06-22T10:51:23;17.20;;;15.50;;
3733;SDS011;1882;52.256;8.874;2023-06-22T10:53:57;17.40;;;15.60;;
3733;SDS011;1882;52.256;8.874;2023-06-22T10:56:24;17.60;;;15.50;;
3733;SDS011;1882;52.256;8.874;2023-06-22T10:58:50;17.17;;;15.37;;
3733;SDS011;1882;52.256;8.874;2023-06-22T11:01:24;20.50;;;15.20;;
3733;SDS011;1882;52.256;8.874;2023-06-22T11:04:01;16.00;;;14.40;;
3733;SDS011;1882;52.256;8.874;2023-06-22T11:06:28;14.63;;;13.10;;
3733;SDS011;1882;52.256;8.874;2023-06-22T11:08:55;16.77;;;13.67;;
3733;SDS011;1882;52.256;8.874;2023-06-22T11:11:32;14.90;;;13.40;;
3733;SDS011;1882;52.256;8.874;2023-06-22T11:13:59;16.40;;;13.30;;
3733;SDS011;1882;52.256;8.874;2023-06-22T11:16:26;19.07;;;14.10;;
3733;SDS011;1882;52.256;8.874;2023-06-22T11:18:53;15.90;;;14.20;;
3733;SDS011;1882;52.256;8.874;2023-06-22T11:21:19;17.10;;;15.13;;
3733;SDS011;1882;52.256;8.874;2023-06-22T11:23:46;17.17;;;14.80;;
3733;SDS011;1882;52.256;8.874;2023-06-22T11:26:13;15.43;;;13.80;;
3733;SDS011;1882;52.256;8.874;2023-06-22T11:28:45;18.00;;;14.57;;
3733;SDS011;1882;52.256;8.874;2023-06-22T11:31:12;14.70;;;13.20;;
3733;SDS011;1882;52.256;8.874;2023-06-22T11:33:51;15.97;;;14.33;;
3733;SDS011;1882;52.256;8.874;2023-06-22T11:36:25;17.10;;;13.80;;
3733;SDS011;1882;52.256;8.874;2023-06-22T11:38:52;16.00;;;14.30;;
3733;SDS011;1882;52.256;8.874;2023-06-22T11:41:19;16.80;;;13.20;;
3733;SDS011;1882;52.256;8.874;2023-06-22T11:43:51;15.77;;;12.97;;
3733;SDS011;1882;52.256;8.874;2023-06-22T11:46:20;18.33;;;13.80;;
3733;SDS011;1882;52.256;8.874;2023-06-22T11:48:52;14.20;;;12.50;;
3733;SDS011;1882;52.256;8.874;2023-06-22T11:51:26;14.53;;;13.00;;
3733;SDS011;1882;52.256;8.874;2023-06-22T11:53:53;16.70;;;12.87;;
3733;SDS011;1882;52.256;8.874;2023-06-22T11:56:22;13.53;;;12.23;;
3733;SDS011;1882;52.256;8.874;2023-06-22T11:58:49;12.53;;;11.13;;
3733;SDS011;1882;52.256;8.874;2023-06-22T12:01:23;11.40;;;10.20;;
3733;SDS011;1882;52.256;8.874;2023-06-22T12:03:50;11.33;;;10.10;;
3733;SDS011;1882;52.256;8.874;2023-06-22T12:06:22;11.53;;;10.43;;
3733;SDS011;1882;52.256;8.874;2023-06-22T12:08:52;11.40;;;10.30;;
3733;SDS011;1882;52.256;8.874;2023-06-22T12:11:20;14.40;;;10.00;;
3733;SDS011;1882;52.256;8.874;2023-06-22T12:13:52;14.70;;;10.00;;
3733;SDS011;1882;52.256;8.874;2023-06-22T12:16:21;11.13;;;9.63;;
3733;SDS011;1882;52.256;8.874;2023-06-22T12:18:50;9.93;;;8.93;;
3733;SDS011;1882;52.256;8.874;2023-06-22T12:21:24;10.33;;;9.23;;
3733;SDS011;1882;52.256;8.874;2023-06-22T12:23:51;9.80;;;8.80;;
3733;SDS011;1882;52.256;8.874;2023-06-22T12:26:26;10.90;;;9.33;;
3733;SDS011;1882;52.256;8.874;2023-06-22T12:28:55;9.97;;;8.80;;
3733;SDS011;1882;52.256;8.874;2023-06-22T12:31:22;10.43;;;9.33;;
3733;SDS011;1882;52.256;8.874;2023-06-22T12:33:54;9.90;;;8.90;;
3733;SDS011;1882;52.256;8.874;2023-06-22T12:36:23;10.10;;;8.80;;
3733;SDS011;1882;52.256;8.874;2023-06-22T12:38:52;11.30;;;9.50;;
3733;SDS011;1882;52.256;8.874;2023-06-22T12:41:21;10.23;;;9.23;;
3733;SDS011;1882;52.256;8.874;2023-06-22T12:43:54;9.43;;;8.43;;
3733;SDS011;1882;52.256;8.874;2023-06-22T12:46:28;10.60;;;9.47;;
3733;SDS011;1882;52.256;8.874;2023-06-22T12:48:56;12.53;;;9.80;;
3733;SDS011;1882;52.256;8.874;2023-06-22T12:51:27;10.43;;;9.20;;
3733;SDS011;1882;52.256;8.874;2023-06-22T12:53:56;9.90;;;8.90;;
3733;SDS011;1882;52.256;8.874;2023-06-22T12:56:26;11.93;;;9.47;;
3733;SDS011;1882;52.256;8.874;2023-06-22T12:59:00;10.27;;;9.27;;
3733;SDS011;1882;52.256;8.874;2023-06-22T13:01:32;10.07;;;9.07;;
3733;SDS011;1882;52.256;8.874;2023-06-22T13:03:59;10.80;;;9.40;;
3733;SDS011;1882;52.256;8.874;2023-06-22T13:06:29;10.60;;;9.60;;
3733;SDS011;1882;52.256;8.874;2023-06-22T13:08:55;11.03;;;10.00;;
3733;SDS011;1882;52.256;8.874;2023-06-22T13:11:42;11.47;;;9.90;;
3733;SDS011;1882;52.256;8.874;2023-06-22T13:14:09;11.30;;;10.20;;
3733;SDS011;1882;52.256;8.874;2023-06-22T13:16:38;13.40;;;10.93;;
3733;SDS011;1882;52.256;8.874;2023-06-22T13:19:12;12.97;;;11.20;;
3733;SDS011;1882;52.256;8.874;2023-06-22T13:21:38;12.83;;;11.20;;
3733;SDS011;1882;52.256;8.874;2023-06-22T13:24:06;15.63;;;12.77;;
3733;SDS011;1882;52.256;8.874;2023-06-22T13:26:35;16.63;;;12.97;;
3733;SDS011;1882;52.256;8.874;2023-06-22T13:29:03;18.57;;;13.13;;
3733;SDS011;1882;52.256;8.874;2023-06-22T13:31:31;15.63;;;13.10;;
3733;SDS011;1882;52.256;8.874;2023-06-22T13:33:59;16.00;;;13.50;;
3733;SDS011;1882;52.256;8.874;2023-06-22T13:36:26;16.80;;;13.33;;
3733;SDS011;1882;52.256;8.874;2023-06-22T13:38:57;17.10;;;14.33;;
3733;SDS011;1882;52.256;8.874;2023-06-22T13:41:25;17.77;;;14.73;;
3733;SDS011;1882;52.256;8.874;2023-06-22T13:43:54;20.80;;;14.97;;
3733;SDS011;1882;52.256;8.874;2023-06-22T13:46:22;18.77;;;15.30;;
3733;SDS011;1882;52.256;8.874;2023-06-22T13:48:51;25.17;;;15.00;;
3733;SDS011;1882;52.256;8.874;2023-06-22T13:51:22;22.77;;;16.23;;
3733;SDS011;1882;52.256;8.874;2023-06-22T13:53:51;25.87;;;16.37;;
3733;SDS011;1882;52.256;8.874;2023-06-22T13:56:19;23.00;;;16.57;;
3733;SDS011;1882;52.256;8.874;2023-06-22T13:58:46;21.20;;;16.37;;
3733;SDS011;1882;52.256;8.874;2023-06-22T14:01:15;22.13;;;17.37;;
3733;SDS011;1882;52.256;8.874;2023-06-22T14:03:43;24.90;;;18.63;;
3733;SDS011;1882;52.256;8.874;2023-06-22T14:06:12;22.37;;;19.20;;
3733;SDS011;1882;52.256;8.874;2023-06-22T14:08:40;29.13;;;20.87;;
3733;SDS011;1882;52.256;8.874;2023-06-22T14:11:07;28.80;;;21.40;;
3733;SDS011;1882;52.256;8.874;2023-06-22T14:13:36;35.33;;;22.97;;
3733;SDS011;1882;52.256;8.874;2023-06-22T14:16:04;33.33;;;23.70;;
3733;SDS011;1882;52.256;8.874;2023-06-22T14:18:32;35.67;;;24.50;;
3733;SDS011;1882;52.256;8.874;2023-06-22T14:21:01;33.37;;;25.37;;
3733;SDS011;1882;52.256;8.874;2023-06-22T14:23:27;37.27;;;27.50;;
3733;SDS011;1882;52.256;8.874;2023-06-22T14:25:55;42.17;;;28.73;;
3733;SDS011;1882;52.256;8.874;2023-06-22T14:28:22;45.73;;;28.93;;
3733;SDS011;1882;52.256;8.874;2023-06-22T14:30:49;39.50;;;28.50;;
3733;SDS011;1882;52.256;8.874;2023-06-22T14:33:17;46.37;;;29.60;;
3733;SDS011;1882;52.256;8.874;2023-06-22T14:35:44;50.00;;;29.13;;
3733;SDS011;1882;52.256;8.874;2023-06-22T14:49:24;39.03;;;27.30;;
3733;SDS011;1882;52.256;8.874;2023-06-22T14:55:15;42.43;;;28.67;;
3733;SDS011;1882;52.256;8.874;2023-06-22T14:59:13;40.67;;;28.73;;
3733;SDS011;1882;52.256;8.874;2023-06-22T15:05:58;46.37;;;31.40;;
3733;SDS011;1882;52.256;8.874;2023-06-22T15:31:02;48.00;;;32.00;;
3733;SDS011;1882;52.256;8.874;2023-06-22T15:33:59;45.30;;;30.17;;
3733;SDS011;1882;52.256;8.874;2023-06-22T15:36:29;44.10;;;31.40;;
3733;SDS011;1882;52.256;8.874;2023-06-22T15:38:55;44.23;;;31.03;;
3733;SDS011;1882;52.256;8.874;2023-06-22T15:41:29;42.93;;;30.10;;
3733;SDS011;1882;52.256;8.874;2023-06-22T15:44:14;41.27;;;30.37;;